createdAt,value
2022-10-13T00:02:09.478Z,5.87
2022-10-13T00:04:42.105Z,6.00
2022-10-13T00:07:14.742Z,6.27
2022-10-13T00:09:47.429Z,5.90
2022-10-13T00:12:21.635Z,6.03
2022-10-13T00:14:54.441Z,5.83
2022-10-13T00:17:27.138Z,5.43
2022-10-13T00:19:59.899Z,5.87
2022-10-13T00:22:32.881Z,6.33
2022-10-13T00:25:05.916Z,5.13
2022-10-13T00:27:39.996Z,5.93
2022-10-13T00:30:12.881Z,5.73
2022-10-13T00:32:45.526Z,6.57
2022-10-13T00:35:18.272Z,6.10
2022-10-13T00:37:50.902Z,5.70
2022-10-13T00:40:23.746Z,5.70
2022-10-13T00:42:57.803Z,5.80
2022-10-13T00:45:30.803Z,5.87
2022-10-13T00:48:03.663Z,5.57
2022-10-13T00:50:38.439Z,5.50
2022-10-13T00:53:12.169Z,6.00
2022-10-13T00:55:45.900Z,5.57
2022-10-13T00:58:22.288Z,5.53
2022-10-13T01:00:55.127Z,5.73
2022-10-13T01:03:28.070Z,6.20
2022-10-13T01:06:02.296Z,5.70
2022-10-13T01:08:35.371Z,6.03
2022-10-13T01:11:15.878Z,5.70
2022-10-13T01:13:51.789Z,6.53
2022-10-13T01:16:29.348Z,6.13
2022-10-13T01:19:06.843Z,6.43
2022-10-13T01:21:44.487Z,6.13
2022-10-13T01:24:44.021Z,6.20
2022-10-13T01:27:33.251Z,6.33
2022-10-13T01:30:09.179Z,6.37
2022-10-13T01:32:56.760Z,6.70
2022-10-13T01:35:34.148Z,6.47
2022-10-13T01:38:09.279Z,6.27
2022-10-13T01:40:43.883Z,6.07
2022-10-13T01:43:18.600Z,7.07
2022-10-13T01:45:55.258Z,6.90
2022-10-13T01:48:29.225Z,6.53
2022-10-13T01:51:02.112Z,6.10
2022-10-13T01:53:35.277Z,6.57
2022-10-13T01:56:08.258Z,6.30
2022-10-13T01:58:41.130Z,5.60
2022-10-13T02:01:28.670Z,6.07
2022-10-13T02:04:10.296Z,6.63
2022-10-13T02:06:45.562Z,6.30
2022-10-13T02:09:22.111Z,7.10
2022-10-13T02:11:57.371Z,6.80
2022-10-13T02:14:30.997Z,6.60
2022-10-13T02:17:04.677Z,6.70
2022-10-13T02:19:39.845Z,6.87
2022-10-13T02:22:14.747Z,6.53
2022-10-13T02:24:47.774Z,6.77
2022-10-13T02:27:20.521Z,6.10
2022-10-13T02:29:54.696Z,6.20
2022-10-13T02:32:27.557Z,7.33
2022-10-13T02:35:01.766Z,6.67
2022-10-13T02:37:34.303Z,6.73
2022-10-13T02:40:07.672Z,6.33
2022-10-13T02:42:40.341Z,7.90
2022-10-13T02:45:16.105Z,6.97
2022-10-13T02:47:48.750Z,6.90
2022-10-13T02:50:22.985Z,7.03
2022-10-13T02:52:55.677Z,6.60
2022-10-13T02:55:28.409Z,7.13
2022-10-13T02:58:01.076Z,7.47
2022-10-13T03:00:33.983Z,6.43
2022-10-13T03:03:07.022Z,6.47
2022-10-13T03:05:41.054Z,7.47
2022-10-13T03:08:13.771Z,6.70
2022-10-13T03:10:46.437Z,6.40
2022-10-13T03:13:19.499Z,6.77
2022-10-13T03:15:52.249Z,6.97
2022-10-13T03:18:24.859Z,7.03
2022-10-13T03:20:59.700Z,6.90
2022-10-13T03:23:32.962Z,6.80
2022-10-13T03:26:05.784Z,7.70
2022-10-13T03:28:38.581Z,6.90
2022-10-13T03:31:11.984Z,6.97
2022-10-13T03:33:44.706Z,7.20
2022-10-13T03:36:19.337Z,6.40
2022-10-13T03:38:52.007Z,6.80
2022-10-13T03:41:24.643Z,6.97
2022-10-13T03:43:57.551Z,6.90
2022-10-13T03:46:30.951Z,7.17
2022-10-13T03:49:03.507Z,7.50
2022-10-13T03:51:45.166Z,7.27
2022-10-13T03:54:18.875Z,7.13
2022-10-13T03:56:51.665Z,7.20
2022-10-13T03:59:24.295Z,7.33
2022-10-13T04:01:57.129Z,7.77
2022-10-13T04:04:29.867Z,8.47
2022-10-13T04:07:04.152Z,7.77
2022-10-13T04:09:36.782Z,7.80
2022-10-13T04:12:09.513Z,7.50
2022-10-13T04:14:42.224Z,7.80
2022-10-13T04:17:15.004Z,7.10
2022-10-13T04:19:47.660Z,7.70
2022-10-13T04:22:22.074Z,7.60
2022-10-13T04:24:55.623Z,7.07
2022-10-13T04:27:28.178Z,7.73
2022-10-13T04:30:01.020Z,7.10
2022-10-13T04:32:34.041Z,7.33
2022-10-13T04:35:07.059Z,7.63
2022-10-13T04:37:44.969Z,8.17
2022-10-13T04:40:18.262Z,8.77
2022-10-13T04:42:51.332Z,8.07
2022-10-13T04:45:24.003Z,7.53
2022-10-13T04:47:56.687Z,7.53
2022-10-13T04:50:29.569Z,7.37
2022-10-13T04:53:03.631Z,7.40
2022-10-13T04:55:36.572Z,7.73
2022-10-13T04:58:09.241Z,7.83
2022-10-13T05:00:42.432Z,7.57
2022-10-13T05:03:15.246Z,8.43
2022-10-13T05:05:48.009Z,8.40
2022-10-13T05:08:22.223Z,8.27
2022-10-13T05:10:55.862Z,7.87
2022-10-13T05:13:29.631Z,8.33
2022-10-13T05:16:03.244Z,7.83
2022-10-13T05:18:36.541Z,7.90
2022-10-13T05:21:09.939Z,8.10
2022-10-13T05:23:44.028Z,8.50
2022-10-13T05:26:17.920Z,7.90
2022-10-13T05:28:50.864Z,8.50
2022-10-13T05:31:24.315Z,8.43
2022-10-13T05:33:57.428Z,8.13
2022-10-13T05:36:31.221Z,8.00
2022-10-13T05:39:07.641Z,8.27
2022-10-13T05:41:40.849Z,8.40
2022-10-13T05:44:13.580Z,8.97
2022-10-13T05:46:48.729Z,8.37
2022-10-13T05:49:21.733Z,8.03
2022-10-13T05:51:55.873Z,8.90
2022-10-13T05:54:31.075Z,8.67
2022-10-13T05:57:05.141Z,8.73
2022-10-13T05:59:40.285Z,9.17
2022-10-13T06:02:15.802Z,8.80
2022-10-13T06:04:49.740Z,8.93
2022-10-13T06:07:22.761Z,9.80
2022-10-13T06:09:57.504Z,8.97
2022-10-13T06:12:30.180Z,9.67
2022-10-13T06:15:02.838Z,9.40
2022-10-13T06:17:36.726Z,9.47
2022-10-13T06:20:10.763Z,8.57
2022-10-13T06:22:43.460Z,9.80
2022-10-13T06:25:17.589Z,9.37
2022-10-13T06:27:50.339Z,9.57
2022-10-13T06:30:23.187Z,9.90
2022-10-13T06:32:56.246Z,10.23
2022-10-13T06:35:28.995Z,9.50
2022-10-13T06:38:01.686Z,10.27
2022-10-13T06:40:35.773Z,10.93
2022-10-13T06:43:08.533Z,10.63
2022-10-13T06:45:41.337Z,10.37
2022-10-13T06:48:14.025Z,9.97
2022-10-13T06:50:46.731Z,10.60
2022-10-13T06:53:19.351Z,10.67
2022-10-13T06:55:56.638Z,11.77
2022-10-13T06:58:29.684Z,10.43
2022-10-13T07:01:02.715Z,10.83
2022-10-13T07:03:35.500Z,11.77
2022-10-13T07:06:08.624Z,10.77
2022-10-13T07:08:41.410Z,11.40
2022-10-13T07:11:16.676Z,10.83
2022-10-13T07:13:49.467Z,11.33
2022-10-13T07:16:22.256Z,11.60
2022-10-13T07:18:54.992Z,11.70
2022-10-13T07:21:27.741Z,11.73
2022-10-13T07:24:00.397Z,11.00
2022-10-13T07:26:34.939Z,11.50
2022-10-13T07:29:08.031Z,11.90
2022-10-13T07:31:40.858Z,11.27
2022-10-13T07:34:13.622Z,11.17
2022-10-13T07:36:46.240Z,11.87
2022-10-13T07:39:18.989Z,12.57
2022-10-13T07:41:53.139Z,11.90
2022-10-13T07:44:26.101Z,12.43
2022-10-13T07:46:58.711Z,11.50
2022-10-13T07:49:31.378Z,12.27
2022-10-13T07:52:04.160Z,11.87
2022-10-13T07:54:36.930Z,12.47
2022-10-13T07:57:10.995Z,12.50
2022-10-13T07:59:43.868Z,12.97
2022-10-13T08:02:16.876Z,12.37
2022-10-13T08:04:49.706Z,12.37
2022-10-13T08:07:22.835Z,11.67
2022-10-13T08:09:56.091Z,12.43
2022-10-13T08:12:30.246Z,12.10
2022-10-13T08:15:06.047Z,12.30
2022-10-13T08:17:39.334Z,12.43
2022-10-13T08:20:12.192Z,12.67
2022-10-13T08:22:44.945Z,11.97
2022-10-13T08:25:17.644Z,12.47
2022-10-13T08:27:53.811Z,11.80
2022-10-13T08:30:28.600Z,11.97
2022-10-13T08:33:01.590Z,12.90
2022-10-13T08:35:35.143Z,12.63
2022-10-13T08:38:07.962Z,14.10
2022-10-13T08:40:40.738Z,12.73
2022-10-13T08:43:16.530Z,12.03
2022-10-13T08:45:49.569Z,13.40
2022-10-13T08:48:24.269Z,14.40
2022-10-13T08:50:58.199Z,13.40
2022-10-13T08:53:32.158Z,13.47
2022-10-13T08:56:08.730Z,12.70
2022-10-13T08:58:43.625Z,14.83
2022-10-13T09:01:17.473Z,14.43
2022-10-13T09:03:52.159Z,14.47
2022-10-13T09:06:28.967Z,14.73
2022-10-13T09:09:02.842Z,13.10
2022-10-13T09:11:36.385Z,13.27
2022-10-13T09:14:12.186Z,13.87
2022-10-13T09:16:45.421Z,13.50
2022-10-13T09:19:23.514Z,15.60
2022-10-13T09:21:57.268Z,16.57
2022-10-13T09:24:29.952Z,15.67
2022-10-13T09:27:05.141Z,16.30
2022-10-13T09:29:39.267Z,15.10
2022-10-13T09:32:15.907Z,14.27
2022-10-13T09:34:48.872Z,17.80
2022-10-13T09:37:22.278Z,13.80
2022-10-13T09:40:02.551Z,18.73
2022-10-13T09:42:35.289Z,12.80
2022-10-13T09:45:15.649Z,13.63
2022-10-13T09:47:51.508Z,13.23
2022-10-13T09:50:25.523Z,14.10
2022-10-13T09:53:11.078Z,13.53
2022-10-13T09:55:46.674Z,14.20
2022-10-13T09:58:22.911Z,13.43
2022-10-13T10:00:58.486Z,14.17
2022-10-13T10:03:33.381Z,13.33
2022-10-13T10:06:07.983Z,14.37
2022-10-13T10:09:03.786Z,13.73
2022-10-13T10:11:40.613Z,14.83
2022-10-13T10:14:16.853Z,14.87
2022-10-13T10:16:52.625Z,15.83
2022-10-13T10:19:28.318Z,15.30
2022-10-13T10:22:04.291Z,14.70
2022-10-13T10:24:39.653Z,14.80
2022-10-13T10:27:15.654Z,15.37
2022-10-13T10:29:50.780Z,15.23
2022-10-13T10:32:28.955Z,14.17
2022-10-13T10:35:04.202Z,14.63
2022-10-13T10:37:43.963Z,14.80
2022-10-13T10:40:22.117Z,14.07
2022-10-13T10:43:07.650Z,14.30
2022-10-13T10:45:40.698Z,14.67
2022-10-13T10:48:19.258Z,14.43
2022-10-13T10:50:52.477Z,15.87
2022-10-13T10:53:30.105Z,14.77
2022-10-13T10:56:07.920Z,15.13
2022-10-13T10:58:43.866Z,16.07
2022-10-13T11:01:24.129Z,25.97
2022-10-13T11:04:02.180Z,16.13
2022-10-13T11:06:35.691Z,15.37
2022-10-13T11:09:12.261Z,16.20
2022-10-13T11:11:44.909Z,15.30
2022-10-13T11:14:29.868Z,14.80
2022-10-13T11:17:17.781Z,14.80
2022-10-13T11:19:51.901Z,14.20
2022-10-13T11:22:25.451Z,13.23
2022-10-13T11:25:02.818Z,14.63
2022-10-13T11:27:39.684Z,17.03
2022-10-13T11:30:31.616Z,19.30
2022-10-13T11:33:27.360Z,16.03
2022-10-13T11:36:28.003Z,13.80
2022-10-13T11:39:06.059Z,12.90
2022-10-13T11:41:42.998Z,12.37
2022-10-13T11:44:17.294Z,12.07
2022-10-13T11:46:56.999Z,12.33
2022-10-13T11:49:38.977Z,13.20
2022-10-13T11:52:26.619Z,12.33
2022-10-13T11:55:03.489Z,12.13
2022-10-13T11:57:36.124Z,11.60
2022-10-13T12:00:14.014Z,10.87
2022-10-13T12:02:51.347Z,11.33
2022-10-13T12:05:25.254Z,11.37
2022-10-13T12:07:59.993Z,11.10
2022-10-13T12:10:34.836Z,9.93
2022-10-13T12:13:19.785Z,11.63
2022-10-13T12:15:59.922Z,10.87
2022-10-13T12:18:34.149Z,10.30
2022-10-13T12:21:11.153Z,10.37
2022-10-13T12:23:44.261Z,9.33
2022-10-13T12:26:19.566Z,9.87
2022-10-13T12:28:53.552Z,8.50
2022-10-13T12:31:27.834Z,8.83
2022-10-13T12:34:01.437Z,9.47
2022-10-13T12:36:35.141Z,8.80
2022-10-13T12:39:09.422Z,8.90
2022-10-13T12:41:44.361Z,9.23
2022-10-13T12:44:18.911Z,8.00
2022-10-13T12:46:53.108Z,9.07
2022-10-13T12:49:26.607Z,7.40
2022-10-13T12:52:04.555Z,7.43
2022-10-13T12:54:38.937Z,8.60
2022-10-13T12:57:17.452Z,8.60
2022-10-13T12:59:50.346Z,7.83
2022-10-13T13:02:28.889Z,7.90
2022-10-13T13:05:01.722Z,8.33
2022-10-13T13:07:34.936Z,7.43
2022-10-13T13:10:25.488Z,7.23
2022-10-13T13:13:13.576Z,8.43
2022-10-13T13:15:46.261Z,7.90
2022-10-13T13:18:32.016Z,8.10
2022-10-13T13:21:05.934Z,7.60
2022-10-13T13:23:38.670Z,7.17
2022-10-13T13:26:15.418Z,8.00
2022-10-13T13:28:52.599Z,8.17
2022-10-13T13:31:26.570Z,7.27
2022-10-13T13:33:59.317Z,7.90
2022-10-13T13:36:32.442Z,7.60
2022-10-13T13:39:05.262Z,8.10
2022-10-13T13:41:37.964Z,8.23
2022-10-13T13:44:13.248Z,7.33
2022-10-13T13:46:45.991Z,8.23
2022-10-13T13:49:18.596Z,7.83
2022-10-13T13:51:51.387Z,8.13
2022-10-13T13:54:24.229Z,9.03
2022-10-13T13:56:58.883Z,8.47
2022-10-13T13:59:33.062Z,8.13
2022-10-13T14:02:05.865Z,9.63
2022-10-13T14:04:38.576Z,21.40
2022-10-13T14:07:11.633Z,10.60
2022-10-13T14:09:44.269Z,10.77
2022-10-13T14:12:17.238Z,12.07
2022-10-13T14:14:51.268Z,13.90
2022-10-13T14:17:24.433Z,10.27
2022-10-13T14:19:57.120Z,10.70
2022-10-13T14:22:30.014Z,9.07
2022-10-13T14:25:02.626Z,8.60
2022-10-13T14:27:35.518Z,8.10
2022-10-13T14:30:10.298Z,9.20
2022-10-13T14:32:43.072Z,9.03
2022-10-13T14:35:15.847Z,9.80
2022-10-13T14:37:48.626Z,12.50
2022-10-13T14:40:21.384Z,11.37
2022-10-13T14:42:54.056Z,11.47
2022-10-13T14:45:28.210Z,10.50
2022-10-13T14:48:01.502Z,8.97
2022-10-13T14:50:34.118Z,9.03
2022-10-13T14:53:09.684Z,9.93
2022-10-13T14:55:42.508Z,9.60
2022-10-13T14:58:15.302Z,9.90
2022-10-13T15:00:49.277Z,13.53
2022-10-13T15:03:21.963Z,12.40
2022-10-13T15:05:55.170Z,11.47
2022-10-13T15:08:27.889Z,13.27
2022-10-13T15:11:00.793Z,9.83
2022-10-13T15:13:33.421Z,12.33
2022-10-13T15:16:08.509Z,20.57
2022-10-13T15:18:41.377Z,37.30
2022-10-13T15:21:14.081Z,28.73
2022-10-13T15:23:47.251Z,13.30
2022-10-13T15:26:20.616Z,11.80
2022-10-13T15:28:54.017Z,12.20
2022-10-13T15:31:28.352Z,10.30
2022-10-13T15:34:02.024Z,13.33
2022-10-13T15:36:35.246Z,13.07
2022-10-13T15:39:08.165Z,16.03
2022-10-13T15:41:40.976Z,15.73
2022-10-13T15:44:13.700Z,17.90
2022-10-13T15:47:06.609Z,15.57
2022-10-13T15:49:40.538Z,13.00
2022-10-13T15:52:13.443Z,12.10
2022-10-13T15:54:46.235Z,11.50
2022-10-13T15:57:18.948Z,10.60
2022-10-13T15:59:51.653Z,10.67
2022-10-13T16:02:25.923Z,9.70
2022-10-13T16:05:04.557Z,9.87
2022-10-13T16:07:37.658Z,10.53
2022-10-13T16:10:12.048Z,10.23
2022-10-13T16:12:49.471Z,9.73
2022-10-13T16:15:22.493Z,9.47
2022-10-13T16:17:56.589Z,9.50
2022-10-13T16:20:34.119Z,9.13
2022-10-13T16:23:06.840Z,9.43
2022-10-13T16:25:39.927Z,10.47
2022-10-13T16:28:12.732Z,9.33
2022-10-13T16:30:45.499Z,9.10
2022-10-13T16:33:19.506Z,9.83
2022-10-13T16:35:52.363Z,10.17
2022-10-13T16:38:25.129Z,13.03
2022-10-13T16:40:57.885Z,24.10
2022-10-13T16:43:30.726Z,23.80
2022-10-13T16:46:04.548Z,15.60
2022-10-13T16:48:38.636Z,14.07
2022-10-13T16:51:13.278Z,18.93
2022-10-13T16:53:48.241Z,16.53
2022-10-13T16:56:22.306Z,16.60
2022-10-13T16:58:56.025Z,15.13
2022-10-13T17:01:29.417Z,14.20
2022-10-13T17:04:04.298Z,14.70
2022-10-13T17:06:39.433Z,12.87
2022-10-13T17:09:12.402Z,49.73
2022-10-13T17:11:45.243Z,42.23
2022-10-13T17:14:17.985Z,15.97
2022-10-13T17:16:53.103Z,13.20
2022-10-13T17:19:30.903Z,21.43
2022-10-13T17:22:03.746Z,17.23
2022-10-13T17:24:36.423Z,22.77
2022-10-13T17:27:09.107Z,32.97
2022-10-13T17:29:41.813Z,36.67
2022-10-13T17:32:14.574Z,27.27
2022-10-13T17:34:48.627Z,15.90
2022-10-13T17:37:21.798Z,15.43
2022-10-13T17:39:54.883Z,26.03
2022-10-13T17:42:29.455Z,39.17
2022-10-13T17:45:02.198Z,16.57
2022-10-13T17:47:34.953Z,32.00
2022-10-13T17:50:09.696Z,41.70
2022-10-13T17:52:42.524Z,19.10
2022-10-13T17:55:15.267Z,21.40
2022-10-13T17:57:48.841Z,32.17
2022-10-13T18:00:21.594Z,24.17
2022-10-13T18:02:55.676Z,106.30
2022-10-13T18:05:33.501Z,64.20
2022-10-13T18:08:16.974Z,28.97
2022-10-13T18:11:07.978Z,22.13
2022-10-13T18:13:41.575Z,19.73
2022-10-13T18:16:15.661Z,23.07
2022-10-13T18:18:50.089Z,20.93
2022-10-13T18:21:26.712Z,18.10
2022-10-13T18:24:00.436Z,33.67
2022-10-13T18:26:34.979Z,35.10
2022-10-13T18:29:08.351Z,28.50
2022-10-13T18:31:41.813Z,18.70
2022-10-13T18:34:15.631Z,35.93
2022-10-13T18:36:51.328Z,27.87
2022-10-13T18:39:26.621Z,20.10
2022-10-13T18:41:59.284Z,41.70
2022-10-13T18:44:32.060Z,26.30
2022-10-13T18:47:04.763Z,32.30
2022-10-13T18:49:37.474Z,29.10
2022-10-13T18:52:12.253Z,19.80
2022-10-13T18:54:45.543Z,22.30
2022-10-13T18:57:18.415Z,19.40
2022-10-13T18:59:51.499Z,30.13
2022-10-13T19:02:24.601Z,56.30
2022-10-13T19:04:57.674Z,33.10
2022-10-13T19:07:34.571Z,19.97
2022-10-13T19:10:10.147Z,20.47
2022-10-13T19:12:42.925Z,20.47
2022-10-13T19:15:15.791Z,20.70
2022-10-13T19:17:48.448Z,21.20
2022-10-13T19:20:21.274Z,19.27
2022-10-13T19:22:55.481Z,18.03
2022-10-13T19:25:28.303Z,18.43
2022-10-13T19:28:01.130Z,19.83
2022-10-13T19:30:33.904Z,32.77
2022-10-13T19:33:06.826Z,41.60
2022-10-13T19:35:40.808Z,34.17
2022-10-13T19:38:15.075Z,46.07
2022-10-13T19:40:49.695Z,22.73
2022-10-13T19:43:22.643Z,46.23
2022-10-13T19:45:59.731Z,35.73
2022-10-13T19:48:32.741Z,22.83
2022-10-13T19:51:06.719Z,21.43
2022-10-13T19:53:41.313Z,22.17
2022-10-13T19:56:22.960Z,22.77
2022-10-13T19:58:55.779Z,21.73
2022-10-13T20:01:28.934Z,19.90
2022-10-13T20:04:01.743Z,20.97
2022-10-13T20:06:35.209Z,22.40
2022-10-13T20:09:09.325Z,22.93
2022-10-13T20:11:42.284Z,31.90
2022-10-13T20:14:15.150Z,22.47
2022-10-13T20:16:48.288Z,22.13
2022-10-13T20:19:21.220Z,20.07
2022-10-13T20:21:53.941Z,20.83
2022-10-13T20:24:28.230Z,20.30
2022-10-13T20:27:00.900Z,20.57
2022-10-13T20:29:33.606Z,21.57
2022-10-13T20:32:06.362Z,21.07
2022-10-13T20:34:39.075Z,20.57
2022-10-13T20:37:11.814Z,21.03
2022-10-13T20:39:47.626Z,19.97
2022-10-13T20:42:20.317Z,20.73
2022-10-13T20:44:53.141Z,20.43
2022-10-13T20:47:27.407Z,20.80
2022-10-13T20:50:00.096Z,21.50
2022-10-13T20:52:32.985Z,20.97
2022-10-13T20:55:07.365Z,21.13
2022-10-13T20:57:40.494Z,21.23
2022-10-13T21:00:13.484Z,20.87
2022-10-13T21:02:46.877Z,22.53
2022-10-13T21:05:19.551Z,21.47
2022-10-13T21:07:52.278Z,20.80
2022-10-13T21:10:26.314Z,20.80
2022-10-13T21:12:58.939Z,22.10
2022-10-13T21:15:31.678Z,21.37
2022-10-13T21:18:04.522Z,21.13
2022-10-13T21:20:38.055Z,21.90
2022-10-13T21:23:11.493Z,21.50
2022-10-13T21:25:45.545Z,21.43
2022-10-13T21:28:18.292Z,20.37
2022-10-13T21:30:59.613Z,21.90
2022-10-13T21:33:35.707Z,20.47
2022-10-13T21:36:09.167Z,20.73
2022-10-13T21:38:42.514Z,22.20
2022-10-13T21:41:16.775Z,21.70
2022-10-13T21:43:50.258Z,21.30
2022-10-13T21:46:24.291Z,21.47
2022-10-13T21:48:57.626Z,21.90
2022-10-13T21:51:31.297Z,22.97
2022-10-13T21:54:05.209Z,21.53
2022-10-13T21:56:40.029Z,21.93
2022-10-13T21:59:13.830Z,21.47
2022-10-13T22:01:46.628Z,24.30
2022-10-13T22:04:19.936Z,23.53
2022-10-13T22:06:52.706Z,25.03
2022-10-13T22:09:25.488Z,23.77
2022-10-13T22:11:59.599Z,24.33
2022-10-13T22:14:32.214Z,23.37
2022-10-13T22:17:07.315Z,24.17
2022-10-13T22:19:40.484Z,23.83
2022-10-13T22:22:13.313Z,23.03
2022-10-13T22:24:46.483Z,23.50
2022-10-13T22:27:20.680Z,23.67
2022-10-13T22:29:53.595Z,23.90
2022-10-13T22:32:26.243Z,23.90
2022-10-13T22:34:58.966Z,23.00
2022-10-13T22:37:31.724Z,24.13
2022-10-13T22:40:04.631Z,23.30
2022-10-13T22:42:38.685Z,24.40
2022-10-13T22:45:11.675Z,23.57
2022-10-13T22:47:44.284Z,23.67
2022-10-13T22:50:16.980Z,24.57
2022-10-13T22:52:49.647Z,22.73
2022-10-13T22:55:22.254Z,21.77
2022-10-13T22:57:56.499Z,22.10
2022-10-13T23:00:29.458Z,23.10
2022-10-13T23:03:02.238Z,23.80
2022-10-13T23:05:35.120Z,22.80
2022-10-13T23:08:07.807Z,21.47
2022-10-13T23:10:40.666Z,21.33
2022-10-13T23:13:14.731Z,21.63
2022-10-13T23:15:47.409Z,21.80
2022-10-13T23:18:20.112Z,22.23
2022-10-13T23:20:56.633Z,20.50
2022-10-13T23:23:29.743Z,22.10
2022-10-13T23:26:03.368Z,21.77
2022-10-13T23:28:37.608Z,20.97
2022-10-13T23:31:11.758Z,21.33
2022-10-13T23:33:44.764Z,21.73
2022-10-13T23:36:18.607Z,21.60
2022-10-13T23:38:55.077Z,20.87
2022-10-13T23:41:28.605Z,21.23
2022-10-13T23:44:02.627Z,21.73
2022-10-13T23:46:35.293Z,21.20
2022-10-13T23:49:08.056Z,21.27
2022-10-13T23:51:43.498Z,21.93
2022-10-13T23:54:16.158Z,21.17
2022-10-13T23:56:49.045Z,21.77
2022-10-13T23:59:23.193Z,20.67
